Etusivu
METAR-TAF:

METAR-TAF

Lentoasemat :

Kiruna, Ruotsi

Kiirunan lentoasema

Leveyspiiri: 67-49N, Pituuspiiri: 020-20E, korkeus merenpinnasta: 452 m

Tämänhetkinen sää

Tämä raportti tehtiin 15 minuuttia sitten, kello 01.50 UTC
Tuuli 1 kn eri suunnista
Lämpötila -6°C
Kosteus 100%
Ilmanpaine 993 hPa
Näkyvyys 10 km tai enemmän

METAR: ESNQ 250150Z AUTO VRB01KT 9999 OVC027/// M06/M06 Q0993

Aika: 03:05 (02:05 UTC)

Sääennuste

Tämä raportti tehtiin 5 tuntia ja 35 minuuttia sitten, kello 20.30 UTC
Ennuste voimassa 24. päivästä klo 21 UTC - 24. päivään klo 24 UTC
Tuuli 2 kn eri suunnista
Näkyvyys: 1200 m
1500 ft:n korkeudessa
lumisadetta
Todennäköisyys 40%
24. päivästä klo 21 UTC - 24. päivään klo 24 UTC
Näkyvyys: 6000 m
900 ft:n korkeudessa
heikkoa lumisadetta

TAF: ESNQ 242030Z 2421/2424 VRB02KT 1200 SN VV015 PROB40 2421/2424 6000 -SN VV009

Säähavainnot ja -ennusteet yli 4000 lentoasemalta (METAR- ja TAF-raportit).

Käytössä olevat sääasemat on merkitty karttaan keltaisilla ja punaisilla pisteillä.

Aseta hiiri pisteen päälle nähdäksesi sääaseman nimen.

Klikkaa sitten nähdäksesi säähavainnot ja -ennusteet.

Kartan vaihtaminen: klikkaa mustalla rastilla varustettuja vihreitä pisteitä, niin voit zoomata sisään; viivalla varustettua vihreää pistettä, niin voit zoomata ulos tai vihreitä nuolia, niin pääset viereisille kartoille.


METAR-TAF: